Time;durP1;ratioP1;P1;durP2;ratioP2;P2;SDS_P1;SDS_P2;PMS_P1;PMS_P2;Temp;Humidity;BMP_temperature;BMP_pressure;BME280_temperature;BME280_humidity;BME280_pressure;Samples;Min_cycle;Max_cycle;Signal;HPM_P1;HPM_P2
2023/03/24 00:03:52;;;;;;;31.90;14.33;;;;;;;;;;10395800;28;20037;-74
2023/03/24 00:08:53;;;;;;;28.70;13.67;;;;;;;;;;10405626;28;20287;-74
2023/03/24 00:13:57;;;;;;;29.33;13.63;;;;;;;;;;10382001;28;20546;-74
2023/03/24 00:18:58;;;;;;;25.08;14.18;;;;;;;;;;10364695;28;20057;-73
2023/03/24 00:24:00;;;;;;;27.77;14.05;;;;;;;;;;10381240;28;20544;-75
2023/03/24 00:29:01;;;;;;;35.05;15.82;;;;;;;;;;10381588;28;20444;-73
2023/03/24 00:34:01;;;;;;;33.50;16.15;;;;;;;;;;10363510;28;20057;-73
2023/03/24 00:39:03;;;;;;;29.25;15.25;;;;;;;;;;10379377;28;20121;-74
2023/03/24 00:44:04;;;;;;;31.48;16.60;;;;;;;;;;10363456;28;20453;-75
2023/03/24 00:49:05;;;;;;;27.70;15.30;;;;;;;;;;10385117;28;20034;-75
2023/03/24 00:54:08;;;;;;;29.95;15.45;;;;;;;;;;10380233;28;20042;-74
2023/03/24 00:59:08;;;;;;;29.88;14.90;;;;;;;;;;10380481;28;20032;-74
2023/03/24 01:04:11;;;;;;;26.63;14.20;;;;;;;;;;10379875;28;20034;-75
2023/03/24 01:09:11;;;;;;;33.97;14.30;;;;;;;;;;10362372;28;20468;-74
2023/03/24 01:14:12;;;;;;;32.38;14.35;;;;;;;;;;10380485;28;20112;-73
2023/03/24 01:19:13;;;;;;;33.20;14.90;;;;;;;;;;10379962;28;20048;-74
2023/03/24 01:24:13;;;;;;;34.45;16.67;;;;;;;;;;10379772;28;20033;-74
2023/03/24 01:29:13;;;;;;;27.42;14.35;;;;;;;;;;10379371;28;20031;-74
2023/03/24 01:34:14;;;;;;;19.70;12.57;;;;;;;;;;10358801;28;20100;-74
2023/03/24 01:39:14;;;;;;;23.92;12.82;;;;;;;;;;10360963;28;20047;-73
2023/03/24 01:44:33;;;;;;;19.83;10.90;;;;;;;;;;10379194;28;20412;-73
2023/03/24 01:49:36;;;;;;;25.60;12.35;;;;;;;;;;10379426;28;20033;-74
2023/03/24 01:54:39;;;;;;;21.83;12.70;;;;;;;;;;10380469;28;20042;-74
2023/03/24 01:59:40;;;;;;;27.25;13.13;;;;;;;;;;10378802;28;20508;-74
2023/03/24 02:04:43;;;;;;;23.67;12.02;;;;;;;;;;10379339;28;20047;-74
2023/03/24 02:09:43;;;;;;;22.17;11.20;;;;;;;;;;10384069;28;20044;-74
2023/03/24 02:14:43;;;;;;;21.98;10.75;;;;;;;;;;10380527;28;20037;-74
2023/03/24 02:19:47;;;;;;;25.67;12.10;;;;;;;;;;10387078;28;20049;-74
2023/03/24 02:24:50;;;;;;;23.05;12.23;;;;;;;;;;10386043;28;20667;-73
2023/03/24 02:30:03;;;;;;;24.05;12.93;;;;;;;;;;10371371;28;20071;-73
2023/03/24 02:35:22;;;;;;;25.85;13.85;;;;;;;;;;10385911;28;20077;-74
2023/03/24 02:40:22;;;;;;;25.42;12.82;;;;;;;;;;10385888;28;20088;-74
2023/03/24 02:45:26;;;;;;;26.83;14.10;;;;;;;;;;10385981;28;20129;-73
2023/03/24 02:50:43;;;;;;;30.40;16.40;;;;;;;;;;10385171;28;20312;-73
2023/03/24 02:55:48;;;;;;;42.10;14.90;;;;;;;;;;10367113;28;20052;-74
2023/03/24 03:00:58;;;;;;;24.27;12.75;;;;;;;;;;10384923;28;20033;-74
2023/03/24 03:06:01;;;;;;;26.83;13.25;;;;;;;;;;10372813;28;20377;-74
2023/03/24 03:11:04;;;;;;;39.63;14.27;;;;;;;;;;10369620;28;20555;-75
2023/03/24 03:16:08;;;;;;;28.30;14.25;;;;;;;;;;10384988;28;20392;-73
2023/03/24 03:21:14;;;;;;;35.03;13.77;;;;;;;;;;10383673;28;20068;-73
2023/03/24 03:26:16;;;;;;;30.65;14.90;;;;;;;;;;10382988;28;20098;-74
2023/03/24 03:31:22;;;;;;;19.02;10.25;;;;;;;;;;10380557;28;20030;-73
2023/03/24 03:36:26;;;;;;;19.02;9.90;;;;;;;;;;10383628;28;20090;-74
2023/03/24 03:41:28;;;;;;;19.98;9.10;;;;;;;;;;10376235;28;20052;-74
2023/03/24 03:46:28;;;;;;;15.48;8.93;;;;;;;;;;10372319;28;20112;-74
2023/03/24 03:51:29;;;;;;;14.40;9.07;;;;;;;;;;10382650;28;20045;-75
2023/03/24 03:56:31;;;;;;;15.93;9.25;;;;;;;;;;10379683;28;20029;-74
2023/03/24 04:01:36;;;;;;;14.15;7.78;;;;;;;;;;10376845;28;20034;-73
2023/03/24 04:07:06;;;;;;;17.33;9.45;;;;;;;;;;10375519;28;20033;-74
2023/03/24 04:12:22;;;;;;;20.05;9.75;;;;;;;;;;10346384;28;20124;-75
2023/03/24 04:17:41;;;;;;;21.77;9.70;;;;;;;;;;10366616;28;20603;-75
2023/03/24 04:22:56;;;;;;;16.38;10.23;;;;;;;;;;10376484;28;20032;-74
2023/03/24 04:28:09;;;;;;;15.40;8.63;;;;;;;;;;10366276;28;20041;-75
2023/03/24 04:33:16;;;;;;;17.90;9.95;;;;;;;;;;10373599;28;20509;-74
2023/03/24 04:38:24;;;;;;;18.67;9.87;;;;;;;;;;10347187;28;20447;-74
2023/03/24 04:43:27;;;;;;;18.38;10.50;;;;;;;;;;10372099;28;20037;-74
2023/03/24 04:48:27;;;;;;;21.80;11.38;;;;;;;;;;10374535;28;20041;-75
2023/03/24 04:53:28;;;;;;;25.00;11.75;;;;;;;;;;10372630;28;20042;-75
2023/03/24 04:58:29;;;;;;;22.65;11.73;;;;;;;;;;10356588;28;20115;-74
2023/03/24 05:03:29;;;;;;;18.48;10.40;;;;;;;;;;10357313;28;20030;-75
2023/03/24 05:08:29;;;;;;;22.20;11.27;;;;;;;;;;10361264;28;20033;-75
2023/03/24 05:13:30;;;;;;;22.02;11.50;;;;;;;;;;10358990;28;20057;-74
2023/03/24 05:18:30;;;;;;;23.05;12.35;;;;;;;;;;10363999;28;20431;-75
2023/03/24 05:23:31;;;;;;;27.80;11.33;;;;;;;;;;10379221;28;20041;-74
2023/03/24 05:28:31;;;;;;;22.35;11.07;;;;;;;;;;10361601;28;20480;-75
2023/03/24 05:33:31;;;;;;;30.88;12.55;;;;;;;;;;10361261;28;20489;-69
2023/03/24 05:38:32;;;;;;;20.05;10.05;;;;;;;;;;10360949;28;20039;-70
2023/03/24 05:43:33;;;;;;;17.67;9.35;;;;;;;;;;10357218;28;20088;-71
2023/03/24 05:48:33;;;;;;;16.80;9.77;;;;;;;;;;10368697;28;20366;-71
2023/03/24 05:53:33;;;;;;;24.30;9.77;;;;;;;;;;10377742;28;20026;-67
2023/03/24 05:58:34;;;;;;;21.40;10.23;;;;;;;;;;10380478;28;20381;-77
2023/03/24 06:03:37;;;;;;;25.85;9.90;;;;;;;;;;10363729;28;20424;-75
2023/03/24 06:08:37;;;;;;;22.05;10.60;;;;;;;;;;10341956;28;20040;-74
2023/03/24 06:13:38;;;;;;;25.47;10.57;;;;;;;;;;10364728;28;20408;-75
2023/03/24 06:18:41;;;;;;;28.13;13.83;;;;;;;;;;10368648;28;20416;-74
2023/03/24 06:23:41;;;;;;;25.88;12.68;;;;;;;;;;10380871;28;20280;-73
2023/03/24 06:28:42;;;;;;;29.10;13.30;;;;;;;;;;10353924;28;20030;-75
2023/03/24 06:33:42;;;;;;;33.28;13.75;;;;;;;;;;10358283;28;20045;-76
2023/03/24 06:38:43;;;;;;;31.40;14.37;;;;;;;;;;10370917;28;20034;-77
2023/03/24 06:43:43;;;;;;;34.42;18.67;;;;;;;;;;10379107;28;20113;-74
2023/03/24 06:48:43;;;;;;;38.88;18.25;;;;;;;;;;10353433;28;20068;-73
2023/03/24 06:53:44;;;;;;;43.10;16.57;;;;;;;;;;10376521;28;20416;-71
2023/03/24 06:58:44;;;;;;;34.72;15.07;;;;;;;;;;10375652;28;20428;-73
2023/03/24 07:03:45;;;;;;;36.00;15.90;;;;;;;;;;10369253;28;20155;-74
2023/03/24 07:08:45;;;;;;;29.48;15.48;;;;;;;;;;10371496;28;20091;-74
2023/03/24 07:13:46;;;;;;;31.08;13.65;;;;;;;;;;10375661;28;20044;-74
2023/03/24 07:18:46;;;;;;;27.52;12.20;;;;;;;;;;10371253;28;20031;-74
2023/03/24 07:23:46;;;;;;;20.90;12.02;;;;;;;;;;10374973;28;20037;-74
2023/03/24 07:28:47;;;;;;;22.02;11.77;;;;;;;;;;10368979;28;20396;-73
2023/03/24 07:33:47;;;;;;;26.13;11.93;;;;;;;;;;10363521;28;20038;-73
2023/03/24 07:38:47;;;;;;;34.45;14.52;;;;;;;;;;10367480;28;20330;-72
2023/03/24 07:43:47;;;;;;;26.03;13.40;;;;;;;;;;10365810;28;20028;-72
2023/03/24 07:48:48;;;;;;;36.85;16.40;;;;;;;;;;10370380;28;20037;-71
2023/03/24 07:53:48;;;;;;;31.85;15.15;;;;;;;;;;10373072;28;20037;-69
2023/03/24 07:58:48;;;;;;;23.83;13.80;;;;;;;;;;10375185;28;20527;-69
2023/03/24 08:03:53;;;;;;;31.60;13.43;;;;;;;;;;10373524;28;20033;-68
2023/03/24 08:08:53;;;;;;;29.92;14.63;;;;;;;;;;10372435;28;20036;-68
2023/03/24 08:13:53;;;;;;;24.27;13.15;;;;;;;;;;10370139;28;20400;-70
2023/03/24 08:18:57;;;;;;;25.13;13.70;;;;;;;;;;10365969;28;20585;-71
2023/03/24 08:23:57;;;;;;;25.90;11.80;;;;;;;;;;10380476;28;20471;-71
2023/03/24 08:28:57;;;;;;;23.98;11.77;;;;;;;;;;10366220;28;20047;-71
2023/03/24 08:33:58;;;;;;;21.70;10.27;;;;;;;;;;10367160;28;20045;-71
2023/03/24 08:39:00;;;;;;;22.65;11.15;;;;;;;;;;10369678;28;20465;-71
2023/03/24 08:44:02;;;;;;;24.17;12.98;;;;;;;;;;10366405;28;20029;-71
2023/03/24 08:49:02;;;;;;;29.98;13.60;;;;;;;;;;10365217;28;20100;-74
2023/03/24 08:54:03;;;;;;;25.33;12.93;;;;;;;;;;10369671;28;20393;-73
2023/03/24 08:59:04;;;;;;;33.77;13.33;;;;;;;;;;10368481;28;20029;-74
2023/03/24 09:04:04;;;;;;;23.40;13.70;;;;;;;;;;10369673;28;20180;-73
2023/03/24 09:09:05;;;;;;;34.53;15.33;;;;;;;;;;10356362;28;20497;-72
2023/03/24 09:14:05;;;;;;;21.40;11.95;;;;;;;;;;10372024;28;20025;-73
2023/03/24 09:19:06;;;;;;;30.00;12.10;;;;;;;;;;10363441;28;20103;-73
2023/03/24 09:24:06;;;;;;;16.67;10.00;;;;;;;;;;10367463;28;20034;-72
2023/03/24 09:29:07;;;;;;;29.43;11.87;;;;;;;;;;10365060;28;20034;-72
2023/03/24 09:34:07;;;;;;;32.58;12.65;;;;;;;;;;10370626;28;20768;-73
2023/03/24 09:39:07;;;;;;;21.52;11.20;;;;;;;;;;10366518;28;20043;-71
2023/03/24 09:44:10;;;;;;;26.17;10.30;;;;;;;;;;10362961;28;20475;-78
2023/03/24 09:49:12;;;;;;;19.27;9.60;;;;;;;;;;10367322;28;20777;-73
2023/03/24 09:54:26;;;;;;;21.55;8.82;;;;;;;;;;10363706;28;20156;-72
2023/03/24 09:59:37;;;;;;;20.73;8.23;;;;;;;;;;10362824;28;20026;-71
2023/03/24 10:04:37;;;;;;;15.30;7.55;;;;;;;;;;10338802;28;20033;-71
2023/03/24 10:09:38;;;;;;;13.95;6.40;;;;;;;;;;10363958;28;20032;-71
2023/03/24 10:14:44;;;;;;;9.50;5.40;;;;;;;;;;10379294;28;20511;-71
2023/03/24 10:19:53;;;;;;;15.00;6.88;;;;;;;;;;10379228;28;20034;-70
2023/03/24 10:24:56;;;;;;;16.20;6.32;;;;;;;;;;10341697;28;20030;-71
2023/03/24 10:30:02;;;;;;;15.45;6.63;;;;;;;;;;10355626;28;20030;-71
2023/03/24 10:35:08;;;;;;;9.05;5.40;;;;;;;;;;10378791;28;20153;-71
2023/03/24 10:40:16;;;;;;;10.65;5.10;;;;;;;;;;10385480;28;20053;-70
2023/03/24 10:45:28;;;;;;;10.30;5.75;;;;;;;;;;10386083;28;20615;-71
2023/03/24 10:50:30;;;;;;;10.75;5.55;;;;;;;;;;10385489;28;20421;-73
2023/03/24 10:55:34;;;;;;;13.48;5.70;;;;;;;;;;10383188;28;20030;-72
2023/03/24 11:00:36;;;;;;;10.90;5.18;;;;;;;;;;10382984;28;20871;-70
2023/03/24 11:05:38;;;;;;;10.88;4.95;;;;;;;;;;10361935;28;20040;-71
2023/03/24 11:10:38;;;;;;;9.07;4.97;;;;;;;;;;10341633;28;20096;-72
2023/03/24 11:15:50;;;;;;;12.90;5.00;;;;;;;;;;10374917;28;20088;-71
2023/03/24 11:21:03;;;;;;;11.93;5.93;;;;;;;;;;10384373;28;20029;-71
2023/03/24 11:26:14;;;;;;;12.48;5.60;;;;;;;;;;10381551;28;20029;-71
2023/03/24 11:31:23;;;;;;;10.30;4.82;;;;;;;;;;10367495;28;20128;-69
2023/03/24 11:36:29;;;;;;;13.43;4.97;;;;;;;;;;10371408;28;20059;-72
2023/03/24 11:41:30;;;;;;;10.77;5.85;;;;;;;;;;10371433;28;20037;-70
2023/03/24 11:46:30;;;;;;;11.13;5.93;;;;;;;;;;10363200;28;20029;-70
2023/03/24 11:51:33;;;;;;;18.77;6.65;;;;;;;;;;10364723;28;20041;-70
2023/03/24 11:56:37;;;;;;;12.95;6.35;;;;;;;;;;10383051;28;20036;-70
2023/03/24 12:01:44;;;;;;;13.73;6.07;;;;;;;;;;10382821;28;20138;-70
2023/03/24 12:07:00;;;;;;;11.38;6.22;;;;;;;;;;10383075;28;20060;-70
2023/03/24 12:12:06;;;;;;;22.90;5.88;;;;;;;;;;10383089;28;20135;-71
2023/03/24 12:17:12;;;;;;;14.77;6.43;;;;;;;;;;10382513;28;20539;-70
2023/03/24 12:22:12;;;;;;;13.23;4.88;;;;;;;;;;10383302;28;20060;-71
2023/03/24 12:27:23;;;;;;;18.58;5.45;;;;;;;;;;10381976;28;20106;-71
2023/03/24 12:32:42;;;;;;;12.75;5.10;;;;;;;;;;10372009;28;20058;-71
2023/03/24 12:37:54;;;;;;;9.77;6.72;;;;;;;;;;10342004;28;20120;-72
2023/03/24 12:43:04;;;;;;;9.25;4.57;;;;;;;;;;10359572;28;20030;-72
2023/03/24 12:48:25;;;;;;;12.02;5.25;;;;;;;;;;10381892;28;20025;-70
2023/03/24 12:53:35;;;;;;;16.40;5.47;;;;;;;;;;10341526;28;20034;-71
2023/03/24 12:59:01;;;;;;;7.93;4.38;;;;;;;;;;10368913;28;20033;-71
2023/03/24 13:04:05;;;;;;;6.78;4.50;;;;;;;;;;10363665;28;20042;-71
2023/03/24 13:09:11;;;;;;;10.00;4.72;;;;;;;;;;10356840;28;20496;-71
2023/03/24 13:14:14;;;;;;;6.82;4.53;;;;;;;;;;10386738;28;20176;-71
2023/03/24 13:19:18;;;;;;;6.40;4.28;;;;;;;;;;10380635;28;20108;-70
2023/03/24 13:24:18;;;;;;;11.25;4.72;;;;;;;;;;10381222;28;20060;-70
2023/03/24 13:29:19;;;;;;;7.32;4.40;;;;;;;;;;10380204;28;20036;-71
2023/03/24 13:34:36;;;;;;;9.52;4.35;;;;;;;;;;10380348;28;20053;-70
2023/03/24 13:39:37;;;;;;;9.20;3.90;;;;;;;;;;10380823;28;20612;-71
2023/03/24 13:44:39;;;;;;;9.07;4.20;;;;;;;;;;10380217;28;20029;-71
2023/03/24 13:49:41;;;;;;;7.35;3.70;;;;;;;;;;10379424;28;20477;-71
2023/03/24 13:54:42;;;;;;;6.72;3.53;;;;;;;;;;10379832;28;20438;-71
2023/03/24 14:00:10;;;;;;;17.25;4.63;;;;;;;;;;10380236;28;20473;-70
2023/03/24 14:05:28;;;;;;;10.15;3.90;;;;;;;;;;10366462;28;20112;-72
2023/03/24 14:10:41;;;;;;;9.27;3.60;;;;;;;;;;10360526;28;20045;-73
2023/03/24 14:15:49;;;;;;;8.82;4.35;;;;;;;;;;10375553;28;20041;-72
2023/03/24 14:21:01;;;;;;;8.27;3.67;;;;;;;;;;10373318;28;20045;-71
2023/03/24 14:26:02;;;;;;;5.28;2.65;;;;;;;;;;10370834;28;20073;-72
2023/03/24 14:31:14;;;;;;;4.55;2.45;;;;;;;;;;10366312;28;20567;-72
2023/03/24 14:36:17;;;;;;;6.40;2.70;;;;;;;;;;10330708;28;20041;-72
2023/03/24 14:41:26;;;;;;;8.88;3.47;;;;;;;;;;10324058;28;20065;-73
2023/03/24 14:46:34;;;;;;;13.30;2.97;;;;;;;;;;10328289;28;20366;-72
2023/03/24 14:51:38;;;;;;;3.47;2.35;;;;;;;;;;10330380;28;20038;-72
2023/03/24 14:56:40;;;;;;;8.77;3.05;;;;;;;;;;10324222;28;20038;-74
2023/03/24 15:01:44;;;;;;;7.60;3.30;;;;;;;;;;10331366;28;20369;-73
2023/03/24 15:06:45;;;;;;;5.28;3.25;;;;;;;;;;10327990;28;20053;-72
2023/03/24 15:11:46;;;;;;;9.43;3.08;;;;;;;;;;10334498;28;20397;-71
2023/03/24 15:16:51;;;;;;;6.93;2.78;;;;;;;;;;10314570;28;20046;-70
2023/03/24 15:22:00;;;;;;;6.03;3.45;;;;;;;;;;10342450;28;20034;-71
2023/03/24 15:27:06;;;;;;;8.60;3.58;;;;;;;;;;10342199;28;20116;-71
2023/03/24 15:32:14;;;;;;;6.55;3.38;;;;;;;;;;10351156;28;20191;-71
2023/03/24 15:37:19;;;;;;;7.57;2.40;;;;;;;;;;10367525;28;20057;-70
2023/03/24 15:42:20;;;;;;;8.80;3.30;;;;;;;;;;10343400;28;20110;-71
2023/03/24 15:47:23;;;;;;;13.80;3.05;;;;;;;;;;10366961;28;20088;-71
2023/03/24 15:52:28;;;;;;;5.25;3.05;;;;;;;;;;10370492;28;20042;-71
2023/03/24 15:57:35;;;;;;;5.68;3.35;;;;;;;;;;10349127;28;20030;-71
2023/03/24 16:02:46;;;;;;;12.93;3.47;;;;;;;;;;10369735;28;20103;-72
2023/03/24 16:08:16;;;;;;;4.82;3.00;;;;;;;;;;10342355;28;20257;-71
2023/03/24 16:13:22;;;;;;;11.55;5.10;;;;;;;;;;10351990;28;20763;-72
2023/03/24 16:18:25;;;;;;;6.53;3.80;;;;;;;;;;10381897;28;20033;-71
2023/03/24 16:23:25;;;;;;;18.63;4.10;;;;;;;;;;10381767;28;20520;-70
2023/03/24 16:28:26;;;;;;;12.00;4.37;;;;;;;;;;10382176;28;20037;-71
2023/03/24 16:33:27;;;;;;;10.95;5.28;;;;;;;;;;10381136;28;20045;-72
2023/03/24 16:38:27;;;;;;;17.27;5.05;;;;;;;;;;10381901;28;20037;-71
2023/03/24 16:43:28;;;;;;;13.27;5.77;;;;;;;;;;10381214;28;20056;-71
2023/03/24 16:48:28;;;;;;;10.60;5.05;;;;;;;;;;10380859;28;20777;-71
2023/03/24 16:53:29;;;;;;;14.68;4.90;;;;;;;;;;10359132;28;20045;-71
2023/03/24 16:58:29;;;;;;;13.97;5.10;;;;;;;;;;10346284;28;20065;-72
2023/03/24 17:03:30;;;;;;;13.68;6.25;;;;;;;;;;10352501;28;20321;-72
2023/03/24 17:08:30;;;;;;;16.63;6.47;;;;;;;;;;10361112;28;20087;-71
2023/03/24 17:13:30;;;;;;;17.50;5.88;;;;;;;;;;10380940;28;20602;-71
2023/03/24 17:18:31;;;;;;;17.27;5.78;;;;;;;;;;10380715;28;20491;-71
2023/03/24 17:23:33;;;;;;;14.30;5.30;;;;;;;;;;10379890;28;20091;-72
2023/03/24 17:28:33;;;;;;;17.45;6.82;;;;;;;;;;10378975;28;20041;-72
2023/03/24 17:33:35;;;;;;;13.38;6.32;;;;;;;;;;10371082;28;20053;-71
2023/03/24 17:38:36;;;;;;;19.73;5.95;;;;;;;;;;10378113;28;20519;-73
2023/03/24 17:43:36;;;;;;;12.25;5.22;;;;;;;;;;10378936;28;20034;-72
2023/03/24 17:48:37;;;;;;;7.13;4.97;;;;;;;;;;10385859;28;20033;-72
2023/03/24 17:53:37;;;;;;;7.90;4.27;;;;;;;;;;10387645;28;20041;-74
2023/03/24 17:58:37;;;;;;;10.30;5.33;;;;;;;;;;10376537;28;20423;-78
2023/03/24 18:03:37;;;;;;;10.68;5.70;;;;;;;;;;10382797;28;20036;-82
2023/03/24 18:08:38;;;;;;;8.07;5.10;;;;;;;;;;10384618;28;20033;-83
2023/03/24 18:13:41;;;;;;;7.95;5.13;;;;;;;;;;10378859;28;20103;-78
2023/03/24 18:18:43;;;;;;;9.98;5.93;;;;;;;;;;10378597;28;20350;-76
2023/03/24 18:23:45;;;;;;;14.50;6.32;;;;;;;;;;10374174;28;20041;-79
2023/03/24 18:28:45;;;;;;;14.18;6.03;;;;;;;;;;10379619;28;20099;-88
2023/03/24 18:33:46;;;;;;;12.27;7.10;;;;;;;;;;10386108;28;20087;-80
2023/03/24 18:38:47;;;;;;;11.13;6.15;;;;;;;;;;10374477;28;20744;-73
2023/03/24 18:43:47;;;;;;;15.43;6.07;;;;;;;;;;10371447;28;20503;-73
2023/03/24 18:48:47;;;;;;;11.88;6.22;;;;;;;;;;10375979;28;20146;-72
2023/03/24 18:53:48;;;;;;;10.40;6.35;;;;;;;;;;10369962;28;20060;-73
2023/03/24 18:58:48;;;;;;;12.13;5.65;;;;;;;;;;10370111;28;20645;-71
2023/03/24 19:03:49;;;;;;;11.68;6.13;;;;;;;;;;10371258;28;20044;-72
2023/03/24 19:08:50;;;;;;;7.93;5.63;;;;;;;;;;10371331;28;20044;-72
2023/03/24 19:13:51;;;;;;;10.38;5.97;;;;;;;;;;10350788;28;20542;-73
2023/03/24 19:18:51;;;;;;;14.13;6.57;;;;;;;;;;10353744;28;20459;-72
2023/03/24 19:23:52;;;;;;;14.93;6.68;;;;;;;;;;10373405;28;20670;-76
2023/03/24 19:28:52;;;;;;;18.58;6.82;;;;;;;;;;10373313;28;20412;-79
2023/03/24 19:33:53;;;;;;;10.63;7.30;;;;;;;;;;10354200;28;20041;-78
2023/03/24 19:38:54;;;;;;;12.82;7.03;;;;;;;;;;10386514;28;20099;-81
2023/03/24 19:43:54;;;;;;;13.93;7.05;;;;;;;;;;10372697;28;20041;-76
2023/03/24 19:48:55;;;;;;;9.17;5.37;;;;;;;;;;10378209;28;20041;-78
2023/03/24 19:53:55;;;;;;;13.80;6.40;;;;;;;;;;10376399;28;20037;-76
2023/03/24 19:58:56;;;;;;;15.40;7.35;;;;;;;;;;10370696;28;20042;-75
2023/03/24 20:03:59;;;;;;;12.20;6.67;;;;;;;;;;10371576;28;20069;-76
2023/03/24 20:09:00;;;;;;;16.48;6.28;;;;;;;;;;10369480;28;20034;-75
2023/03/24 20:14:00;;;;;;;20.80;8.37;;;;;;;;;;10370187;28;20037;-74
2023/03/24 20:19:00;;;;;;;14.50;8.63;;;;;;;;;;10376783;28;20041;-82
2023/03/24 20:24:02;;;;;;;12.98;7.47;;;;;;;;;;10371877;28;20515;-77
2023/03/24 20:29:03;;;;;;;13.93;7.78;;;;;;;;;;10356619;28;20072;-76
2023/03/24 20:34:03;;;;;;;15.55;8.20;;;;;;;;;;10373839;28;20037;-74
2023/03/24 20:39:04;;;;;;;13.02;7.55;;;;;;;;;;10370398;28;20034;-75
2023/03/24 20:44:05;;;;;;;13.57;7.22;;;;;;;;;;10370486;28;20453;-76
2023/03/24 20:49:07;;;;;;;15.60;7.35;;;;;;;;;;10368773;28;20139;-77
2023/03/24 20:54:07;;;;;;;13.00;7.55;;;;;;;;;;10367731;28;20080;-77
2023/03/24 20:59:08;;;;;;;13.47;7.27;;;;;;;;;;10371274;28;20051;-76
2023/03/24 21:04:09;;;;;;;12.80;6.63;;;;;;;;;;10371164;28;20041;-78
2023/03/24 21:09:09;;;;;;;12.80;7.50;;;;;;;;;;10369630;28;20697;-77
2023/03/24 21:14:10;;;;;;;16.50;7.30;;;;;;;;;;10367009;28;20032;-78
2023/03/24 21:19:10;;;;;;;13.40;6.47;;;;;;;;;;10349674;28;20507;-78
2023/03/24 21:24:14;;;;;;;16.77;7.90;;;;;;;;;;10372718;28;20037;-80
2023/03/24 21:29:14;;;;;;;14.00;6.93;;;;;;;;;;10354584;28;21077;-80
2023/03/24 21:34:14;;;;;;;14.50;8.07;;;;;;;;;;10372970;28;20073;-81
2023/03/24 21:39:16;;;;;;;22.50;8.43;;;;;;;;;;10379864;28;20044;-82
2023/03/24 21:44:17;;;;;;;20.45;8.13;;;;;;;;;;10350181;28;20037;-78
2023/03/24 21:49:18;;;;;;;17.80;8.20;;;;;;;;;;10384557;28;20447;-78
2023/03/24 21:54:19;;;;;;;19.73;9.25;;;;;;;;;;10371431;28;20048;-79
2023/03/24 21:59:20;;;;;;;19.50;9.40;;;;;;;;;;10370061;28;20037;-79
2023/03/24 22:04:20;;;;;;;16.35;8.93;;;;;;;;;;10372387;28;20049;-78
2023/03/24 22:09:20;;;;;;;19.73;9.70;;;;;;;;;;10371080;28;20470;-79
2023/03/24 22:14:21;;;;;;;27.25;10.70;;;;;;;;;;10367232;28;20103;-79
2023/03/24 22:19:21;;;;;;;19.50;10.25;;;;;;;;;;10373136;28;20042;-79
2023/03/24 22:24:23;;;;;;;22.95;10.70;;;;;;;;;;10372701;28;20428;-80
2023/03/24 22:29:25;;;;;;;28.00;10.07;;;;;;;;;;10368029;28;20045;-79
2023/03/24 22:34:26;;;;;;;25.00;10.32;;;;;;;;;;10379058;28;20053;-80
2023/03/24 22:39:26;;;;;;;24.95;10.23;;;;;;;;;;10379499;28;20107;-78
2023/03/24 22:44:27;;;;;;;24.35;13.07;;;;;;;;;;10381555;28;20526;-79
2023/03/24 22:49:30;;;;;;;21.77;10.02;;;;;;;;;;10381084;28;20041;-77
2023/03/24 22:54:30;;;;;;;25.70;11.85;;;;;;;;;;10383280;28;20177;-79
2023/03/24 22:59:32;;;;;;;28.58;13.00;;;;;;;;;;10378072;28;20034;-79
2023/03/24 23:04:32;;;;;;;27.77;13.70;;;;;;;;;;10392768;28;20408;-78
2023/03/24 23:09:32;;;;;;;30.02;14.48;;;;;;;;;;10378664;28;20570;-78
2023/03/24 23:14:33;;;;;;;31.45;15.65;;;;;;;;;;10377354;28;20088;-78
2023/03/24 23:19:34;;;;;;;34.05;15.35;;;;;;;;;;10376086;28;20732;-79
2023/03/24 23:24:38;;;;;;;35.28;14.45;;;;;;;;;;10374195;28;20029;-78
2023/03/24 23:29:39;;;;;;;35.75;13.73;;;;;;;;;;10376546;28;20052;-76
2023/03/24 23:34:41;;;;;;;28.52;14.02;;;;;;;;;;10397449;28;20441;-78
2023/03/24 23:39:41;;;;;;;33.65;14.13;;;;;;;;;;10383535;28;20034;-77
2023/03/24 23:44:42;;;;;;;36.20;14.30;;;;;;;;;;10381876;28;20029;-76
2023/03/24 23:49:42;;;;;;;24.10;12.80;;;;;;;;;;10383104;28;20428;-78
2023/03/24 23:54:42;;;;;;;31.80;13.83;;;;;;;;;;10398200;28;20484;-76
2023/03/24 23:59:43;;;;;;;27.20;14.03;;;;;;;;;;10382414;28;20464;-77
